createdAt,value
2018-08-17T00:01:06.595Z,7.25
2018-08-17T00:03:33.635Z,7.75
2018-08-17T00:06:00.712Z,8.63
2018-08-17T00:08:27.756Z,7.80
2018-08-17T00:10:54.875Z,7.05
2018-08-17T00:13:21.946Z,7.30
2018-08-17T00:15:49.000Z,7.75
2018-08-17T00:18:16.035Z,7.62
2018-08-17T00:20:43.170Z,7.15
2018-08-17T00:23:10.179Z,7.80
2018-08-17T00:25:37.236Z,7.42
2018-08-17T00:28:04.404Z,7.78
2018-08-17T00:30:31.431Z,6.55
2018-08-17T00:32:58.581Z,7.00
2018-08-17T00:35:25.816Z,7.67
2018-08-17T00:37:52.855Z,6.58
2018-08-17T00:40:19.892Z,6.30
2018-08-17T00:42:46.968Z,7.78
2018-08-17T00:45:14.000Z,7.62
2018-08-17T00:47:41.041Z,6.75
2018-08-17T00:50:08.080Z,6.97
2018-08-17T00:52:35.143Z,6.78
2018-08-17T00:55:02.185Z,7.62
2018-08-17T00:57:29.253Z,7.25
2018-08-17T00:59:56.275Z,6.97
2018-08-17T01:02:23.312Z,6.72
2018-08-17T01:04:50.340Z,7.10
2018-08-17T01:07:17.483Z,7.12
2018-08-17T01:09:44.589Z,7.78
2018-08-17T01:12:11.787Z,6.72
2018-08-17T01:14:38.813Z,5.83
2018-08-17T01:17:05.858Z,7.05
2018-08-17T01:19:32.891Z,6.80
2018-08-17T01:21:59.932Z,7.35
2018-08-17T01:24:26.978Z,6.70
2018-08-17T01:26:54.023Z,6.80
2018-08-17T01:29:21.058Z,7.70
2018-08-17T01:31:48.169Z,6.80
2018-08-17T01:34:15.319Z,6.05
2018-08-17T01:39:10.289Z,7.07
2018-08-17T01:41:37.639Z,7.83
2018-08-17T01:44:04.694Z,7.62
2018-08-17T01:46:31.769Z,6.72
2018-08-17T01:48:58.792Z,6.70
2018-08-17T01:51:25.836Z,7.55
2018-08-17T01:53:52.873Z,8.13
2018-08-17T01:56:19.941Z,8.78
2018-08-17T01:58:46.976Z,8.80
2018-08-17T02:01:14.023Z,7.62
2018-08-17T02:03:41.084Z,7.33
2018-08-17T02:06:08.143Z,7.47
2018-08-17T02:08:35.176Z,7.60
2018-08-17T02:11:02.211Z,7.62
2018-08-17T02:13:29.293Z,8.33
2018-08-17T02:15:56.340Z,8.83
2018-08-17T02:18:23.438Z,6.70
2018-08-17T02:20:50.488Z,7.00
2018-08-17T02:23:17.578Z,8.98
2018-08-17T02:25:44.584Z,7.05
2018-08-17T02:28:11.643Z,9.15
2018-08-17T02:30:38.712Z,8.58
2018-08-17T02:33:05.804Z,6.90
2018-08-17T02:35:32.872Z,7.15
2018-08-17T02:37:59.912Z,9.28
2018-08-17T02:40:26.948Z,10.00
2018-08-17T02:42:54.021Z,10.40
2018-08-17T02:45:21.056Z,8.15
2018-08-17T02:47:48.117Z,8.53
2018-08-17T02:50:15.201Z,7.83
2018-08-17T02:52:42.325Z,9.28
2018-08-17T02:55:09.373Z,8.00
2018-08-17T02:57:36.457Z,10.82
2018-08-17T03:00:03.493Z,9.28
2018-08-17T03:02:30.620Z,7.25
2018-08-17T03:04:57.748Z,7.70
2018-08-17T03:07:24.792Z,11.57
2018-08-17T03:09:51.939Z,6.87
2018-08-17T03:12:19.000Z,7.95
2018-08-17T03:14:46.104Z,7.30
2018-08-17T03:17:13.145Z,8.08
2018-08-17T03:19:40.388Z,6.40
2018-08-17T03:22:07.433Z,9.93
2018-08-17T03:24:34.476Z,8.38
2018-08-17T03:27:01.518Z,8.43
2018-08-17T03:29:28.573Z,9.70
2018-08-17T03:31:55.724Z,7.87
2018-08-17T03:34:22.864Z,7.87
2018-08-17T03:36:49.917Z,9.45
2018-08-17T03:39:16.956Z,8.45
2018-08-17T03:41:43.993Z,9.25
2018-08-17T03:44:11.055Z,9.83
2018-08-17T03:46:38.125Z,7.70
2018-08-17T03:49:05.405Z,8.88
2018-08-17T03:51:32.449Z,7.95
2018-08-17T03:53:59.501Z,8.58
2018-08-17T03:56:26.556Z,8.93
2018-08-17T03:58:53.643Z,8.05
2018-08-17T04:01:20.712Z,7.25
2018-08-17T04:03:47.756Z,8.08
2018-08-17T04:06:14.820Z,7.75
2018-08-17T04:08:41.906Z,9.18
2018-08-17T04:11:08.959Z,7.55
2018-08-17T04:13:36.023Z,7.37
2018-08-17T04:16:03.068Z,9.43
2018-08-17T04:18:30.100Z,8.08
2018-08-17T04:20:57.492Z,8.38
2018-08-17T04:23:24.561Z,8.80
2018-08-17T04:25:51.593Z,8.88
2018-08-17T04:28:18.640Z,7.67
2018-08-17T04:30:45.763Z,7.50
2018-08-17T04:33:12.893Z,9.35
2018-08-17T04:35:39.946Z,8.60
2018-08-17T04:38:07.043Z,8.73
2018-08-17T04:40:34.120Z,11.05
2018-08-17T04:43:01.276Z,7.83
2018-08-17T04:45:28.368Z,10.25
2018-08-17T04:47:55.422Z,7.90
2018-08-17T04:50:22.464Z,8.78
2018-08-17T04:52:49.582Z,9.20
2018-08-17T04:55:16.639Z,7.85
2018-08-17T04:57:43.714Z,7.40
2018-08-17T05:00:10.949Z,7.97
2018-08-17T05:02:38.517Z,7.72
2018-08-17T05:05:05.916Z,8.93
2018-08-17T05:07:32.967Z,7.72
2018-08-17T05:10:00.223Z,7.70
2018-08-17T05:12:27.281Z,9.83
2018-08-17T05:14:54.333Z,8.50
2018-08-17T05:17:21.572Z,9.10
2018-08-17T05:19:48.651Z,7.75
2018-08-17T05:22:15.706Z,7.67
2018-08-17T05:24:42.754Z,8.80
2018-08-17T05:27:09.927Z,8.58
2018-08-17T05:29:36.984Z,7.97
2018-08-17T05:32:04.056Z,8.50
2018-08-17T05:34:31.132Z,8.28
2018-08-17T05:36:58.168Z,9.08
2018-08-17T05:39:25.258Z,11.00
2018-08-17T05:41:52.381Z,12.90
2018-08-17T05:44:19.433Z,10.55
2018-08-17T05:46:46.513Z,10.30
2018-08-17T05:49:13.540Z,12.88
2018-08-17T05:51:40.622Z,11.12
2018-08-17T05:54:07.663Z,12.40
2018-08-17T05:56:34.872Z,10.68
2018-08-17T05:59:01.851Z,9.28
2018-08-17T06:01:28.894Z,10.78
2018-08-17T06:03:55.924Z,9.63
2018-08-17T06:06:22.968Z,9.78
2018-08-17T06:08:50.000Z,9.65
2018-08-17T06:11:17.173Z,7.65
2018-08-17T06:13:44.135Z,11.25
2018-08-17T06:16:11.444Z,9.98
2018-08-17T06:18:38.488Z,12.25
2018-08-17T06:21:05.543Z,10.53
2018-08-17T06:23:32.613Z,9.85
2018-08-17T06:25:59.649Z,7.55
2018-08-17T06:28:26.720Z,9.53
2018-08-17T06:30:53.778Z,9.40
2018-08-17T06:33:20.852Z,11.63
2018-08-17T06:35:47.880Z,10.63
2018-08-17T06:38:14.918Z,8.93
2018-08-17T06:40:41.945Z,12.07
2018-08-17T06:43:08.972Z,8.65
2018-08-17T06:45:36.132Z,8.15
2018-08-17T06:48:03.160Z,8.88
2018-08-17T06:50:30.221Z,12.50
2018-08-17T06:52:57.217Z,8.78
2018-08-17T06:55:24.292Z,11.12
2018-08-17T06:57:51.325Z,9.93
2018-08-17T07:00:18.356Z,13.05
2018-08-17T07:02:46.409Z,8.00
2018-08-17T07:05:13.525Z,9.78
2018-08-17T07:07:40.857Z,21.62
2018-08-17T07:10:09.171Z,7.33
2018-08-17T07:12:36.238Z,6.67
2018-08-17T07:15:03.512Z,9.50
2018-08-17T07:17:30.560Z,8.88
2018-08-17T07:19:57.583Z,8.35
2018-08-17T07:22:24.620Z,9.58
2018-08-17T07:24:51.727Z,7.47
2018-08-17T07:27:18.764Z,9.03
2018-08-17T07:29:45.886Z,11.08
2018-08-17T07:32:12.947Z,6.78
2018-08-17T07:34:40.088Z,9.45
2018-08-17T07:37:07.172Z,8.78
2018-08-17T07:39:34.209Z,8.98
2018-08-17T07:42:01.247Z,10.28
2018-08-17T07:44:28.284Z,6.35
2018-08-17T07:46:55.320Z,7.30
2018-08-17T07:49:22.368Z,7.97
2018-08-17T07:51:49.425Z,6.17
2018-08-17T07:54:16.467Z,6.40
2018-08-17T07:56:43.644Z,11.68
2018-08-17T07:59:10.787Z,7.83
2018-08-17T08:01:37.740Z,8.15
2018-08-17T08:04:04.741Z,6.35
2018-08-17T08:06:31.788Z,8.35
2018-08-17T08:08:59.006Z,7.28
2018-08-17T08:11:26.052Z,12.03
2018-08-17T08:13:53.077Z,7.05
2018-08-17T08:16:20.112Z,9.20
2018-08-17T08:18:47.141Z,6.22
2018-08-17T08:21:14.175Z,6.28
2018-08-17T08:23:41.205Z,6.75
2018-08-17T08:26:08.297Z,6.17
2018-08-17T08:28:35.272Z,5.92
2018-08-17T08:31:02.321Z,6.67
2018-08-17T08:33:29.357Z,6.03
2018-08-17T08:35:56.408Z,5.40
2018-08-17T08:38:23.467Z,6.47
2018-08-17T08:40:50.500Z,5.53
2018-08-17T08:43:17.611Z,6.25
2018-08-17T08:45:44.689Z,5.10
2018-08-17T08:48:11.769Z,6.08
2018-08-17T08:50:39.003Z,5.78
2018-08-17T08:53:06.109Z,5.50
2018-08-17T08:55:33.140Z,5.97
2018-08-17T08:58:00.168Z,5.17
2018-08-17T09:00:27.235Z,4.95
2018-08-17T09:02:54.309Z,5.67
2018-08-17T09:05:21.334Z,5.78
2018-08-17T09:07:48.378Z,5.62
2018-08-17T09:10:15.419Z,5.60
2018-08-17T09:12:42.480Z,4.85
2018-08-17T09:15:10.522Z,5.17
2018-08-17T09:17:37.572Z,4.78
2018-08-17T09:20:05.027Z,6.62
2018-08-17T09:22:32.184Z,4.80
2018-08-17T09:24:59.191Z,4.50
2018-08-17T09:27:26.218Z,5.47
2018-08-17T09:29:53.257Z,9.98
2018-08-17T09:32:20.288Z,5.42
2018-08-17T09:34:47.308Z,5.28
2018-08-17T09:37:14.344Z,4.90
2018-08-17T09:39:41.408Z,4.97
2018-08-17T09:42:08.525Z,4.95
2018-08-17T09:44:35.482Z,4.20
2018-08-17T09:47:02.663Z,6.08
2018-08-17T09:49:29.689Z,4.55
2018-08-17T09:51:56.768Z,5.53
2018-08-17T09:54:23.914Z,4.55
2018-08-17T09:56:50.970Z,5.00
2018-08-17T09:59:18.027Z,4.28
2018-08-17T10:01:50.695Z,5.60
2018-08-17T10:04:23.300Z,5.97
2018-08-17T10:06:55.887Z,5.10
2018-08-17T10:09:26.655Z,5.12
2018-08-17T10:11:53.676Z,8.20
2018-08-17T10:14:20.942Z,6.75
2018-08-17T10:16:48.149Z,4.75
2018-08-17T10:19:15.156Z,4.42
2018-08-17T10:21:49.973Z,7.17
2018-08-17T10:24:16.762Z,4.47
2018-08-17T10:26:43.820Z,4.85
2018-08-17T10:29:10.850Z,4.65
2018-08-17T10:31:37.997Z,4.62
2018-08-17T10:34:05.099Z,5.45
2018-08-17T10:36:32.157Z,4.95
2018-08-17T10:38:59.197Z,5.30
2018-08-17T10:41:27.640Z,5.17
2018-08-17T10:43:54.688Z,4.55
2018-08-17T10:46:21.710Z,5.90
2018-08-17T10:48:48.907Z,4.60
2018-08-17T10:51:15.871Z,5.45
2018-08-17T10:53:45.553Z,4.87
2018-08-17T10:56:12.737Z,5.00
2018-08-17T10:58:39.776Z,4.97
2018-08-17T11:01:06.828Z,5.28
2018-08-17T11:03:33.892Z,5.55
2018-08-17T11:06:00.927Z,5.33
2018-08-17T11:08:27.965Z,4.62
2018-08-17T11:10:55.161Z,4.70
2018-08-17T11:13:22.200Z,5.72
2018-08-17T11:15:49.188Z,4.25
2018-08-17T11:18:16.224Z,5.22
2018-08-17T11:20:43.277Z,4.45
2018-08-17T11:23:10.302Z,4.62
2018-08-17T11:25:37.324Z,4.53
2018-08-17T11:28:04.345Z,5.03
2018-08-17T11:30:31.398Z,4.87
2018-08-17T11:32:58.421Z,4.75
2018-08-17T11:35:25.461Z,5.50
2018-08-17T11:37:52.523Z,4.37
2018-08-17T11:40:19.593Z,5.58
2018-08-17T11:42:47.759Z,6.22
2018-08-17T11:45:16.560Z,5.37
2018-08-17T11:47:44.129Z,5.42
2018-08-17T11:50:12.156Z,4.42
2018-08-17T11:52:44.280Z,4.90
2018-08-17T11:55:11.457Z,4.35
2018-08-17T11:57:38.468Z,4.55
2018-08-17T12:00:05.598Z,4.40
2018-08-17T12:02:32.652Z,6.45
2018-08-17T12:04:59.709Z,7.10
2018-08-17T12:07:26.760Z,4.53
2018-08-17T12:10:01.712Z,4.97
2018-08-17T12:12:28.892Z,4.47
2018-08-17T12:14:55.978Z,4.85
2018-08-17T12:17:22.984Z,4.72
2018-08-17T12:19:50.046Z,4.97
2018-08-17T12:22:17.077Z,4.90
2018-08-17T12:24:44.394Z,4.53
2018-08-17T12:27:11.260Z,4.37
2018-08-17T12:29:38.280Z,4.53
2018-08-17T12:32:05.804Z,4.90
2018-08-17T12:34:32.820Z,4.78
2018-08-17T12:36:59.953Z,4.90
2018-08-17T12:39:26.978Z,8.53
2018-08-17T12:41:54.056Z,5.12
2018-08-17T12:44:21.082Z,5.97
2018-08-17T12:46:48.133Z,4.70
2018-08-17T12:49:15.256Z,5.72
2018-08-17T12:51:42.301Z,5.40
2018-08-17T12:54:10.888Z,5.22
2018-08-17T12:56:37.925Z,5.47
2018-08-17T12:59:04.953Z,4.72
2018-08-17T13:01:31.991Z,5.78
2018-08-17T13:03:59.056Z,4.60
2018-08-17T13:06:26.098Z,5.83
2018-08-17T13:08:53.132Z,5.08
2018-08-17T13:11:20.212Z,5.00
2018-08-17T13:13:47.608Z,5.50
2018-08-17T13:16:14.703Z,5.17
2018-08-17T13:18:41.739Z,5.05
2018-08-17T13:21:08.826Z,5.20
2018-08-17T13:23:35.866Z,7.12
2018-08-17T13:26:02.898Z,5.60
2018-08-17T13:28:29.940Z,4.58
2018-08-17T13:30:56.988Z,5.00
2018-08-17T13:33:24.012Z,4.85
2018-08-17T13:35:51.061Z,5.80
2018-08-17T13:38:18.076Z,5.45
2018-08-17T13:40:45.177Z,4.95
2018-08-17T13:43:12.361Z,5.45
2018-08-17T13:45:39.394Z,5.12
2018-08-17T13:48:06.439Z,5.17
2018-08-17T13:50:33.528Z,4.92
2018-08-17T13:53:00.677Z,6.17
2018-08-17T13:55:27.745Z,6.58
2018-08-17T13:57:54.797Z,7.20
2018-08-17T14:00:21.821Z,5.33
2018-08-17T14:02:49.860Z,6.47
2018-08-17T14:05:16.915Z,6.10
2018-08-17T14:07:44.614Z,5.62
2018-08-17T14:10:11.949Z,6.58
2018-08-17T14:12:39.312Z,5.87
2018-08-17T14:15:07.040Z,13.45
2018-08-17T14:17:34.224Z,6.65
2018-08-17T14:20:01.232Z,8.55
2018-08-17T14:22:28.449Z,7.50
2018-08-17T14:24:55.437Z,8.30
2018-08-17T14:27:22.509Z,7.95
2018-08-17T14:29:49.536Z,10.53
2018-08-17T14:32:16.572Z,13.95
2018-08-17T14:34:43.610Z,8.48
2018-08-17T14:37:10.679Z,6.67
2018-08-17T14:39:37.729Z,6.33
2018-08-17T14:42:04.783Z,5.95
2018-08-17T14:44:31.816Z,9.73
2018-08-17T14:46:58.848Z,14.83
2018-08-17T14:49:26.381Z,14.78
2018-08-17T14:51:53.415Z,14.65
2018-08-17T14:54:20.432Z,22.20
2018-08-17T15:03:12.313Z,30.23
2018-08-17T15:05:39.409Z,21.33
2018-08-17T15:08:06.427Z,22.93
2018-08-17T15:10:33.452Z,21.33
2018-08-17T15:13:00.511Z,19.05
2018-08-17T15:15:27.524Z,16.27
2018-08-17T15:17:54.610Z,17.30
2018-08-17T15:20:21.632Z,13.90
2018-08-17T15:22:48.893Z,19.50
2018-08-17T15:25:16.112Z,13.05
2018-08-17T15:27:43.165Z,12.65
2018-08-17T15:30:11.076Z,10.60
2018-08-17T15:32:38.560Z,13.40
2018-08-17T15:35:05.710Z,9.90
2018-08-17T15:37:32.724Z,8.85
2018-08-17T15:39:59.760Z,8.28
2018-08-17T15:42:26.898Z,10.82
2018-08-17T15:44:54.088Z,8.30
2018-08-17T15:47:21.195Z,8.63
2018-08-17T15:49:54.604Z,7.97
2018-08-17T15:52:21.696Z,4.15
2018-08-17T15:54:48.732Z,4.30
2018-08-17T15:57:15.806Z,4.92
2018-08-17T15:59:42.853Z,6.47
2018-08-17T16:02:09.885Z,9.68
2018-08-17T16:04:37.046Z,6.60
2018-08-17T16:07:04.377Z,7.45
2018-08-17T16:09:31.419Z,6.47
2018-08-17T16:11:58.494Z,5.12
2018-08-17T16:14:25.606Z,6.85
2018-08-17T16:16:52.684Z,7.90
2018-08-17T16:19:19.740Z,6.55
2018-08-17T16:21:46.897Z,4.40
2018-08-17T16:24:14.336Z,8.50
2018-08-17T16:26:41.364Z,7.30
2018-08-17T16:29:08.401Z,19.30
2018-08-17T16:31:35.787Z,5.03
2018-08-17T16:34:02.892Z,5.60
2018-08-17T16:36:29.936Z,30.08
2018-08-17T16:38:56.993Z,31.70
2018-08-17T16:41:24.042Z,35.78
2018-08-17T16:43:51.095Z,30.62
2018-08-17T16:46:18.154Z,27.40
2018-08-17T16:48:45.198Z,21.70
2018-08-17T16:51:12.543Z,18.27
2018-08-17T16:53:39.593Z,15.58
2018-08-17T16:56:06.641Z,10.63
2018-08-17T16:58:33.672Z,11.20
2018-08-17T17:01:00.761Z,15.10
2018-08-17T17:03:27.753Z,10.95
2018-08-17T17:05:58.245Z,8.65
2018-08-17T17:08:25.282Z,8.40
2018-08-17T17:10:52.318Z,8.13
2018-08-17T17:13:19.356Z,8.15
2018-08-17T17:15:46.428Z,11.10
2018-08-17T17:18:13.498Z,9.33
2018-08-17T17:20:40.607Z,5.22
2018-08-17T17:23:08.933Z,6.15
2018-08-17T17:25:36.177Z,6.60
2018-08-17T17:28:03.340Z,10.05
2018-08-17T17:30:33.595Z,6.83
2018-08-17T17:33:00.624Z,8.50
2018-08-17T17:35:27.716Z,8.58
2018-08-17T17:37:54.793Z,6.60
2018-08-17T17:40:21.836Z,7.37
2018-08-17T17:42:48.868Z,7.53
2018-08-17T17:45:15.912Z,40.48
2018-08-17T17:47:43.033Z,22.70
2018-08-17T17:50:10.190Z,10.82
2018-08-17T17:52:37.237Z,9.43
2018-08-17T17:55:04.279Z,11.88
2018-08-17T17:57:31.338Z,8.83
2018-08-17T17:59:58.395Z,10.40
2018-08-17T18:02:26.165Z,18.23
2018-08-17T18:04:53.286Z,11.08
2018-08-17T18:07:20.569Z,9.45
2018-08-17T18:09:47.748Z,11.97
2018-08-17T18:12:14.807Z,11.20
2018-08-17T18:14:42.431Z,10.30
2018-08-17T18:17:10.029Z,8.05
2018-08-17T18:19:37.069Z,12.68
2018-08-17T18:22:04.110Z,9.18
2018-08-17T18:24:31.128Z,9.80
2018-08-17T18:26:58.276Z,13.13
2018-08-17T18:29:25.317Z,8.90
2018-08-17T18:31:52.346Z,12.78
2018-08-17T18:34:19.392Z,10.05
2018-08-17T18:36:46.504Z,10.10
2018-08-17T18:39:14.391Z,12.65
2018-08-17T18:41:41.668Z,12.95
2018-08-17T18:44:09.070Z,13.90
2018-08-17T18:46:36.466Z,13.28
2018-08-17T18:49:03.676Z,10.70
2018-08-17T18:51:30.716Z,10.53
2018-08-17T18:53:57.792Z,9.60
2018-08-17T18:56:24.844Z,11.30
2018-08-17T18:58:51.885Z,10.88
2018-08-17T19:01:18.953Z,11.10
2018-08-17T19:03:46.019Z,9.78
2018-08-17T19:06:13.044Z,9.60
2018-08-17T19:08:40.236Z,9.33
2018-08-17T19:11:07.260Z,9.45
2018-08-17T19:13:34.599Z,8.78
2018-08-17T19:16:01.910Z,8.78
2018-08-17T19:18:29.960Z,8.43
2018-08-17T19:20:58.103Z,9.18
2018-08-17T19:23:25.160Z,8.85
2018-08-17T19:25:52.207Z,9.23
2018-08-17T19:28:19.323Z,9.45
2018-08-17T19:30:46.369Z,7.95
2018-08-17T19:33:13.748Z,8.20
2018-08-17T19:35:45.320Z,7.17
2018-08-17T19:38:12.352Z,7.83
2018-08-17T19:40:39.386Z,8.10
2018-08-17T19:43:06.424Z,7.00
2018-08-17T19:45:33.554Z,7.67
2018-08-17T19:48:00.608Z,7.90
2018-08-17T19:50:27.716Z,7.30
2018-08-17T19:52:54.788Z,6.70
2018-08-17T19:55:21.788Z,8.23
2018-08-17T19:57:48.860Z,7.53
2018-08-17T20:00:15.912Z,6.75
2018-08-17T20:02:43.009Z,7.80
2018-08-17T20:05:10.588Z,6.97
2018-08-17T20:07:38.250Z,7.28
2018-08-17T20:10:05.280Z,6.67
2018-08-17T20:12:32.318Z,10.03
2018-08-17T20:14:59.401Z,6.92
2018-08-17T20:17:26.442Z,6.37
2018-08-17T20:19:53.500Z,8.70
2018-08-17T20:22:21.790Z,7.08
2018-08-17T20:24:49.072Z,7.33
2018-08-17T20:27:16.607Z,7.58
2018-08-17T20:29:43.808Z,7.35
2018-08-17T20:32:10.936Z,6.85
2018-08-17T20:34:40.410Z,7.78
2018-08-17T20:37:07.436Z,8.23
2018-08-17T20:39:34.661Z,6.70
2018-08-17T20:42:01.696Z,7.28
2018-08-17T20:44:28.858Z,7.28
2018-08-17T20:46:56.086Z,7.30
2018-08-17T20:49:23.180Z,8.25
2018-08-17T20:51:58.271Z,7.95
2018-08-17T20:54:25.544Z,9.43
2018-08-17T20:56:52.580Z,8.60
2018-08-17T20:59:19.629Z,8.10
2018-08-17T21:01:46.672Z,10.20
2018-08-17T21:04:13.720Z,8.60
2018-08-17T21:06:40.752Z,8.35
2018-08-17T21:09:07.852Z,8.25
2018-08-17T21:11:35.095Z,9.53
2018-08-17T21:14:02.140Z,8.95
2018-08-17T21:16:29.190Z,8.28
2018-08-17T21:18:56.229Z,9.03
2018-08-17T21:21:23.479Z,11.85
2018-08-17T21:23:50.458Z,9.25
2018-08-17T21:26:17.572Z,15.90
2018-08-17T21:28:44.798Z,8.78
2018-08-17T21:31:11.792Z,8.83
2018-08-17T21:33:38.825Z,8.80
2018-08-17T21:36:05.863Z,8.80
2018-08-17T21:38:32.885Z,9.55
2018-08-17T21:40:59.933Z,9.48
2018-08-17T21:43:27.044Z,9.08
2018-08-17T21:45:58.428Z,9.38
2018-08-17T21:48:27.409Z,9.85
2018-08-17T21:50:54.468Z,9.55
2018-08-17T21:53:21.500Z,10.35
2018-08-17T21:55:48.598Z,9.95
2018-08-17T21:58:15.620Z,9.83
2018-08-17T22:00:42.687Z,10.43
2018-08-17T22:03:12.796Z,9.63
2018-08-17T22:05:40.012Z,10.20
2018-08-17T22:08:07.047Z,12.88
2018-08-17T22:10:34.113Z,10.88
2018-08-17T22:13:01.165Z,10.88
2018-08-17T22:15:29.565Z,10.43
2018-08-17T22:17:56.611Z,11.30
2018-08-17T22:20:23.739Z,10.35
2018-08-17T22:22:50.794Z,9.55
2018-08-17T22:25:18.428Z,12.23
2018-08-17T22:27:47.502Z,11.05
2018-08-17T22:30:16.305Z,15.88
2018-08-17T22:32:43.285Z,12.03
2018-08-17T22:35:10.360Z,11.45
2018-08-17T22:37:37.417Z,11.03
2018-08-17T22:40:04.497Z,11.45
2018-08-17T22:42:31.610Z,10.95
2018-08-17T22:44:58.644Z,11.15
2018-08-17T22:47:27.692Z,12.07
2018-08-17T22:49:55.901Z,11.70
2018-08-17T22:52:22.958Z,11.00
2018-08-17T22:54:56.957Z,12.50
2018-08-17T22:57:24.528Z,11.88
2018-08-17T23:00:01.681Z,11.12
2018-08-17T23:02:28.732Z,13.90
2018-08-17T23:04:55.773Z,10.80
2018-08-17T23:07:22.816Z,11.60
2018-08-17T23:09:49.903Z,11.93
2018-08-17T23:12:16.942Z,11.57
2018-08-17T23:14:43.975Z,12.58
2018-08-17T23:17:11.016Z,12.93
2018-08-17T23:19:38.048Z,12.03
2018-08-17T23:22:05.139Z,13.28
2018-08-17T23:24:32.313Z,12.13
2018-08-17T23:26:59.292Z,13.28
2018-08-17T23:29:26.341Z,13.93
2018-08-17T23:31:53.373Z,14.28
2018-08-17T23:34:20.405Z,14.30
2018-08-17T23:36:47.432Z,14.85
2018-08-17T23:39:14.488Z,17.30
2018-08-17T23:41:41.524Z,16.50
2018-08-17T23:44:08.672Z,14.58
2018-08-17T23:46:35.732Z,16.75
2018-08-17T23:49:02.772Z,15.68
2018-08-17T23:51:29.820Z,19.70
2018-08-17T23:53:56.952Z,16.32
2018-08-17T23:56:23.996Z,15.75
2018-08-17T23:58:51.036Z,18.95
